Time;durP1;ratioP1;P1;durP2;ratioP2;P2;SDS_P1;SDS_P2;PMS_P1;PMS_P2;Temp;Humidity;BMP_temperature;BMP_pressure;BME280_temperature;BME280_humidity;BME280_pressure;Samples;Min_cycle;Max_cycle;Signal;HPM_P1;HPM_P2
2022/08/14 00:00:52;;;;;;;14.90;13.27;;;;;;;19.60;86.75;99361.06;5071672;28;20044;-84
2022/08/14 00:03:25;;;;;;;15.73;13.50;;;;;;;19.63;86.61;99365.66;5055547;28;20048;-84
2022/08/14 00:05:52;;;;;;;15.43;13.82;;;;;;;19.55;86.95;99352.13;5072386;28;20058;-84
2022/08/14 00:08:17;;;;;;;14.57;13.00;;;;;;;19.54;87.55;99352.63;5054286;28;20036;-84
2022/08/14 00:10:43;;;;;;;15.63;13.38;;;;;;;19.56;87.97;99358.50;5055798;28;20039;-84
2022/08/14 00:13:09;;;;;;;15.13;13.15;;;;;;;19.52;87.76;99355.19;5055575;28;20083;-84
2022/08/14 00:15:37;;;;;;;14.30;12.50;;;;;;;19.47;88.76;99359.56;5055709;28;20166;-84
2022/08/14 00:18:03;;;;;;;16.02;13.07;;;;;;;19.44;89.11;99352.16;5055505;28;20032;-84
2022/08/14 00:20:32;;;;;;;15.23;13.63;;;;;;;19.45;89.72;99356.47;5073053;28;20040;-84
2022/08/14 00:22:58;;;;;;;17.58;14.90;;;;;;;19.43;90.54;99359.06;5072483;28;20481;-84
2022/08/14 00:25:24;;;;;;;16.05;13.90;;;;;;;19.40;90.81;99350.84;5055211;28;20390;-84
2022/08/14 00:27:50;;;;;;;15.63;13.93;;;;;;;19.40;90.83;99348.81;5052441;28;20126;-84
2022/08/14 00:30:15;;;;;;;16.08;14.38;;;;;;;19.34;91.39;99339.59;5056060;28;20126;-84
2022/08/14 00:32:41;;;;;;;16.08;13.80;;;;;;;19.36;91.72;99330.66;5069812;28;20035;-84
2022/08/14 00:35:08;;;;;;;15.85;14.15;;;;;;;19.36;91.92;99345.50;5072477;28;20490;-85
2022/08/14 00:37:34;;;;;;;15.48;13.88;;;;;;;19.36;92.10;99337.06;5055172;28;20044;-84
2022/08/14 00:40:00;;;;;;;17.73;14.02;;;;;;;19.38;92.16;99337.28;5055828;28;20051;-84
2022/08/14 00:42:27;;;;;;;15.88;14.27;;;;;;;19.34;92.64;99336.78;5048711;28;20033;-84
2022/08/14 00:44:54;;;;;;;15.90;14.23;;;;;;;19.33;93.00;99342.94;5037487;28;20052;-84
2022/08/14 00:47:23;;;;;;;15.68;13.65;;;;;;;19.24;93.14;99332.72;5052408;28;20119;-84
2022/08/14 00:49:55;;;;;;;15.85;13.77;;;;;;;19.28;93.33;99344.47;5056066;28;20036;-84
2022/08/14 00:52:21;;;;;;;15.32;13.73;;;;;;;19.24;93.62;99341.16;5055803;28;20051;-84
2022/08/14 00:54:51;;;;;;;15.07;12.93;;;;;;;19.18;94.56;99334.00;5038552;28;22113;-83
2022/08/14 00:57:18;;;;;;;16.23;13.57;;;;;;;19.15;94.51;99341.41;5038661;28;20048;-84
2022/08/14 00:59:44;;;;;;;15.40;13.90;;;;;;;19.18;94.77;99336.81;5055409;28;20044;-84
2022/08/14 01:05:33;;;;;;;15.70;14.10;;;;;;;19.19;94.65;99339.13;5058659;28;20061;-82
2022/08/14 01:07:59;;;;;;;15.15;13.65;;;;;;;19.21;94.64;99336.53;5035653;28;20577;-82
2022/08/14 01:10:49;;;;;;;15.63;13.85;;;;;;;19.17;95.42;99341.66;5035753;28;20095;-82
2022/08/14 01:13:15;;;;;;;14.57;13.18;;;;;;;19.14;95.19;99334.25;5038260;28;20447;-82
2022/08/14 01:15:44;;;;;;;16.02;13.98;;;;;;;19.14;95.37;99336.31;5072795;28;20382;-82
2022/08/14 01:21:10;;;;;;;15.57;13.95;;;;;;;19.14;96.37;99325.81;5031858;28;20429;-82
2022/08/14 01:23:38;;;;;;;16.35;13.55;;;;;;;19.15;97.24;99332.22;5021585;28;20037;-82
2022/08/14 01:26:04;;;;;;;16.35;13.65;;;;;;;19.09;97.29;99318.94;5044475;28;20078;-82
2022/08/14 01:28:36;;;;;;;15.90;14.18;;;;;;;19.12;97.08;99334.00;5067892;28;20040;-82
2022/08/14 01:31:14;;;;;;;15.13;13.35;;;;;;;19.07;97.47;99331.97;5073399;28;20044;-82
2022/08/14 01:33:45;;;;;;;15.75;13.30;;;;;;;19.06;97.49;99334.00;5059013;28;20179;-82
2022/08/14 01:36:12;;;;;;;15.15;13.63;;;;;;;19.05;97.62;99329.66;5044856;28;20124;-82
2022/08/14 01:38:39;;;;;;;14.48;12.63;;;;;;;19.08;97.74;99337.09;5049545;28;20445;-81
2022/08/14 01:41:07;;;;;;;16.15;14.45;;;;;;;19.06;98.03;99336.06;5053213;28;20029;-82
2022/08/14 01:43:47;;;;;;;15.82;13.38;;;;;;;19.03;98.48;99337.09;5050452;28;20029;-82
2022/08/14 01:46:15;;;;;;;15.65;13.27;;;;;;;18.99;98.96;99330.94;5048200;28;20094;-82
2022/08/14 01:48:43;;;;;;;14.60;13.18;;;;;;;18.93;99.42;99330.19;5052999;28;20519;-81
2022/08/14 01:51:12;;;;;;;16.88;13.73;;;;;;;18.89;99.78;99335.28;5054124;28;20115;-82
2022/08/14 01:53:39;;;;;;;15.05;13.50;;;;;;;18.86;100.00;99339.88;5053062;28;20045;-82
2022/08/14 01:56:05;;;;;;;15.13;13.63;;;;;;;18.90;99.81;99340.41;5052962;28;20496;-82
2022/08/14 01:58:31;;;;;;;14.50;13.00;;;;;;;18.82;100.00;99342.19;5047593;28;20040;-81
2022/08/14 02:00:57;;;;;;;15.23;13.65;;;;;;;18.85;99.85;99338.34;5028638;28;20045;-82
2022/08/14 02:03:29;;;;;;;16.38;14.35;;;;;;;18.84;100.00;99339.66;5030233;28;20949;-82
2022/08/14 02:05:58;;;;;;;15.40;13.43;;;;;;;18.79;100.00;99339.63;5006454;28;20125;-82
2022/08/14 02:08:26;;;;;;;16.90;13.43;;;;;;;18.74;100.00;99338.34;5010852;28;20045;-82
2022/08/14 02:11:15;;;;;;;15.02;13.52;;;;;;;18.77;100.00;99342.19;4998607;28;20500;-82
2022/08/14 02:13:38;;;;;;;14.32;12.82;;;;;;;18.75;100.00;99344.75;5013268;28;20037;-84
2022/08/14 02:16:04;;;;;;;15.57;13.80;;;;;;;18.70;100.00;99339.88;5013745;28;20128;-82
2022/08/14 02:18:30;;;;;;;14.45;12.95;;;;;;;18.66;100.00;99342.94;5001893;28;20125;-83
2022/08/14 02:20:57;;;;;;;15.13;13.60;;;;;;;18.64;100.00;99351.88;4992123;28;20465;-83
2022/08/14 02:23:23;;;;;;;14.82;13.25;;;;;;;18.61;100.00;99340.88;5012526;28;20120;-83
2022/08/14 02:25:48;;;;;;;14.27;12.88;;;;;;;18.55;100.00;99338.09;5008143;28;20142;-83
2022/08/14 02:28:14;;;;;;;15.77;13.45;;;;;;;18.59;100.00;99343.47;5010774;28;20041;-83
2022/08/14 02:30:39;;;;;;;15.43;13.00;;;;;;;18.59;100.00;99349.84;5012389;28;20042;-83
2022/08/14 02:33:06;;;;;;;14.68;13.23;;;;;;;18.57;100.00;99341.16;5012740;28;20042;-83
2022/08/14 02:35:31;;;;;;;15.25;13.65;;;;;;;18.59;100.00;99354.69;5012623;28;20096;-82
2022/08/14 02:37:57;;;;;;;14.43;12.73;;;;;;;18.61;100.00;99347.28;5007823;28;20034;-83
2022/08/14 02:40:23;;;;;;;15.05;13.45;;;;;;;18.61;100.00;99350.09;4992828;28;20417;-83
2022/08/14 02:42:48;;;;;;;14.52;13.00;;;;;;;18.58;100.00;99348.31;4994804;28;20053;-83
2022/08/14 02:45:14;;;;;;;15.20;13.60;;;;;;;18.54;100.00;99347.78;5010891;28;20037;-82
2022/08/14 02:47:39;;;;;;;14.85;13.25;;;;;;;18.48;100.00;99332.91;4992497;28;20077;-83
2022/08/14 02:50:05;;;;;;;15.10;13.55;;;;;;;18.47;100.00;99342.66;5007376;28;20034;-83
2022/08/14 02:52:32;;;;;;;15.98;13.65;;;;;;;18.45;100.00;99338.78;5010522;28;20509;-83
2022/08/14 02:54:58;;;;;;;14.00;12.52;;;;;;;18.43;100.00;99336.50;4989777;28;20042;-83
2022/08/14 02:57:26;;;;;;;15.02;13.35;;;;;;;18.43;100.00;99342.13;5017830;28;20109;-83
2022/08/14 02:59:52;;;;;;;17.67;14.30;;;;;;;18.35;100.00;99334.69;4989054;28;20038;-83
2022/08/14 03:02:18;;;;;;;15.75;14.15;;;;;;;18.29;100.00;99334.69;4992499;28;20037;-83
2022/08/14 03:04:43;;;;;;;15.05;13.55;;;;;;;18.29;100.00;99339.53;5008032;28;20527;-82
2022/08/14 03:07:09;;;;;;;16.23;14.50;;;;;;;18.25;100.00;99336.97;4996089;28;20455;-82
2022/08/14 03:09:36;;;;;;;14.90;13.30;;;;;;;18.19;100.00;99350.22;5012088;28;20144;-83
2022/08/14 03:12:02;;;;;;;16.08;14.38;;;;;;;18.17;100.00;99347.91;5030701;28;20377;-83
2022/08/14 03:14:27;;;;;;;15.88;14.00;;;;;;;18.18;100.00;99343.06;5028118;28;20037;-82
2022/08/14 03:16:53;;;;;;;15.30;13.70;;;;;;;18.14;100.00;99336.94;5013122;28;20038;-82
2022/08/14 03:19:18;;;;;;;15.88;14.27;;;;;;;18.14;100.00;99342.56;5011136;28;20512;-83
2022/08/14 03:21:45;;;;;;;15.75;13.73;;;;;;;18.09;100.00;99334.88;5017421;28;20087;-82
2022/08/14 03:24:13;;;;;;;15.52;13.93;;;;;;;18.11;100.00;99337.97;5033293;28;20108;-82
2022/08/14 03:26:41;;;;;;;15.60;13.90;;;;;;;18.10;100.00;99331.56;5031345;28;20045;-82
2022/08/14 03:29:07;;;;;;;15.70;14.10;;;;;;;18.09;100.00;99337.69;5030544;28;20396;-83
2022/08/14 03:31:35;;;;;;;15.93;14.02;;;;;;;18.08;100.00;99338.94;5027874;28;20026;-81
2022/08/14 03:34:03;;;;;;;15.55;13.93;;;;;;;18.10;100.00;99336.41;5011726;28;20045;-83
2022/08/14 03:36:31;;;;;;;16.27;14.43;;;;;;;18.10;100.00;99333.59;5030980;28;20492;-83
2022/08/14 03:38:58;;;;;;;17.70;14.68;;;;;;;18.08;100.00;99336.91;5010958;28;20107;-83
2022/08/14 03:41:25;;;;;;;15.52;13.93;;;;;;;18.12;100.00;99339.47;5030181;28;20099;-83
2022/08/14 03:43:56;;;;;;;18.17;14.70;;;;;;;18.12;100.00;99339.47;5031653;28;20057;-82
2022/08/14 03:46:25;;;;;;;17.33;13.77;;;;;;;18.11;100.00;99338.72;5005247;28;20077;-81
2022/08/14 03:48:53;;;;;;;17.98;14.45;;;;;;;18.11;100.00;99337.97;5030866;28;20033;-80
2022/08/14 03:51:18;;;;;;;17.35;14.18;;;;;;;18.09;100.00;99340.50;5026322;28;20056;-81
2022/08/14 03:53:45;;;;;;;19.33;15.15;;;;;;;18.09;100.00;99326.47;5029085;28;20041;-84
2022/08/14 03:56:13;;;;;;;16.20;14.43;;;;;;;18.13;100.00;99329.78;5029654;28;20095;-81
2022/08/14 03:58:44;;;;;;;15.45;13.85;;;;;;;18.17;100.00;99341.53;5034112;28;20096;-83
2022/08/14 04:01:11;;;;;;;16.77;14.98;;;;;;;18.15;100.00;99332.88;5028453;28;20120;-83
2022/08/14 04:03:37;;;;;;;15.65;14.02;;;;;;;18.14;100.00;99336.94;5026988;28;20111;-84
2022/08/14 04:06:03;;;;;;;19.63;15.55;;;;;;;18.15;100.00;99339.25;5011696;28;20501;-83
2022/08/14 04:08:29;;;;;;;16.15;14.40;;;;;;;18.16;100.00;99328.75;5027986;28;20129;-83
2022/08/14 04:10:56;;;;;;;18.05;15.32;;;;;;;18.20;100.00;99325.75;5028795;28;20492;-84
2022/08/14 04:13:21;;;;;;;15.82;14.02;;;;;;;18.26;100.00;99324.47;5028037;28;20553;-83
2022/08/14 04:15:48;;;;;;;16.17;13.90;;;;;;;18.30;100.00;99333.41;5028406;28;20056;-83
2022/08/14 04:18:14;;;;;;;15.77;14.00;;;;;;;18.34;100.00;99331.13;5010838;28;20409;-81
2022/08/14 04:20:41;;;;;;;15.15;13.60;;;;;;;18.38;100.00;99320.41;5027933;28;20045;-83
2022/08/14 04:23:10;;;;;;;15.68;14.07;;;;;;;18.40;100.00;99320.66;5011571;28;20552;-83
2022/08/14 04:25:36;;;;;;;15.60;13.55;;;;;;;18.43;100.00;99325.28;5029689;28;20045;-83
2022/08/14 04:28:04;;;;;;;15.13;13.52;;;;;;;18.48;100.00;99330.13;5009994;28;20537;-83
2022/08/14 04:30:31;;;;;;;15.70;14.10;;;;;;;18.52;100.00;99315.88;5030478;28;20508;-83
2022/08/14 04:32:57;;;;;;;15.45;13.85;;;;;;;18.56;100.00;99322.00;5028165;28;20120;-83
2022/08/14 04:35:22;;;;;;;14.70;13.20;;;;;;;18.61;100.00;99318.41;5007428;28;20212;-83
2022/08/14 04:43:35;;;;;;;15.00;13.40;;;;;;;18.74;100.00;99318.69;5033072;28;20069;-84
2022/08/14 04:46:13;;;;;;;15.70;13.75;;;;;;;18.73;100.00;99314.34;5032749;28;20050;-83
2022/08/14 04:48:39;;;;;;;15.45;13.85;;;;;;;18.78;100.00;99321.25;5032424;28;20550;-84
2022/08/14 04:51:07;;;;;;;16.20;13.82;;;;;;;18.82;100.00;99324.56;5014512;28;20038;-83
2022/08/14 04:53:35;;;;;;;16.65;14.15;;;;;;;18.88;100.00;99325.34;5031627;28;20077;-83
2022/08/14 04:56:01;;;;;;;15.48;13.55;;;;;;;18.88;100.00;99319.72;5034255;28;20095;-83
2022/08/14 04:58:28;;;;;;;14.93;13.43;;;;;;;18.98;100.00;99326.59;5031938;28;20045;-83
2022/08/14 05:00:56;;;;;;;15.02;13.52;;;;;;;19.07;100.00;99326.34;5023548;28;20101;-83
2022/08/14 05:03:25;;;;;;;15.07;13.30;;;;;;;19.17;100.00;99329.66;5013214;28;20541;-83
2022/08/14 05:05:53;;;;;;;15.77;14.18;;;;;;;19.24;100.00;99327.09;5032843;28;20055;-83
2022/08/14 05:08:18;;;;;;;14.95;12.57;;;;;;;19.35;100.00;99324.25;5033651;28;20046;-83
2022/08/14 05:10:50;;;;;;;14.18;12.77;;;;;;;19.46;100.00;99327.06;5029686;28;20022;-83
2022/08/14 05:13:17;;;;;;;15.35;13.75;;;;;;;19.57;100.00;99325.53;5032554;28;20100;-83
2022/08/14 05:15:43;;;;;;;14.52;12.98;;;;;;;19.62;100.00;99330.34;5012432;28;20511;-82
2022/08/14 05:18:15;;;;;;;14.60;13.20;;;;;;;19.65;100.00;99315.28;4999970;28;20041;-83
2022/08/14 05:20:46;;;;;;;14.82;13.27;;;;;;;19.72;100.00;99332.38;5032530;28;20056;-83
2022/08/14 05:23:17;;;;;;;14.30;12.85;;;;;;;19.82;100.00;99330.03;5012518;28;20046;-83
2022/08/14 05:25:43;;;;;;;14.15;12.75;;;;;;;19.92;100.00;99331.28;5031770;28;20037;-83
2022/08/14 05:28:18;;;;;;;14.45;12.90;;;;;;;20.02;100.00;99333.25;5012539;28;20596;-83
2022/08/14 05:30:49;;;;;;;14.55;13.05;;;;;;;20.11;100.00;99323.75;5031061;28;20044;-83
2022/08/14 05:33:17;;;;;;;14.18;12.77;;;;;;;20.18;100.00;99331.66;5005100;28;20447;-83
2022/08/14 05:35:44;;;;;;;13.85;12.52;;;;;;;20.33;100.00;99337.75;4993606;28;20041;-83
2022/08/14 05:38:14;;;;;;;14.27;12.88;;;;;;;20.36;100.00;99339.53;5030420;28;20084;-83
2022/08/14 05:40:40;;;;;;;13.15;11.85;;;;;;;20.46;100.00;99334.34;5012790;28;20483;-83
2022/08/14 05:43:06;;;;;;;14.23;12.82;;;;;;;20.53;100.00;99330.22;5030886;28;20124;-83
2022/08/14 05:45:33;;;;;;;13.18;11.88;;;;;;;20.63;100.00;99325.78;5032237;28;20042;-81
2022/08/14 05:47:59;;;;;;;14.77;11.82;;;;;;;20.77;99.19;99316.19;5009985;28;20068;-83
2022/08/14 05:50:24;;;;;;;13.30;11.50;;;;;;;20.91;97.95;99320.69;5029870;28;20123;-83
2022/08/14 05:52:50;;;;;;;13.68;12.27;;;;;;;20.97;97.50;99327.06;5030427;28;20091;-83
2022/08/14 05:55:16;;;;;;;13.77;12.38;;;;;;;21.15;96.54;99320.75;5026929;28;20472;-84
2022/08/14 05:58:01;;;;;;;12.85;11.55;;;;;;;21.14;95.76;99319.25;5012514;28;20045;-83
2022/08/14 06:00:29;;;;;;;14.52;13.02;;;;;;;21.26;95.20;99315.03;5029376;28;20053;-83
2022/08/14 06:02:56;;;;;;;13.10;11.85;;;;;;;21.49;94.15;99315.53;5032896;28;20512;-81
2022/08/14 06:05:22;;;;;;;13.40;12.07;;;;;;;21.54;93.53;99311.13;5032287;28;20050;-83
2022/08/14 06:07:48;;;;;;;12.45;11.25;;;;;;;21.67;92.95;99297.91;5031981;28;20050;-83
2022/08/14 06:10:13;;;;;;;13.18;11.77;;;;;;;21.87;91.54;99310.75;5031919;28;20401;-83
2022/08/14 06:15:09;;;;;;;12.63;11.43;;;;;;;21.96;89.67;99304.72;5033865;28;20068;-88
2022/08/14 06:17:50;;;;;;;13.10;11.27;;;;;;;22.07;89.91;99307.44;5048518;28;20128;-87
2022/08/14 06:20:16;;;;;;;12.50;11.00;;;;;;;22.10;89.76;99308.41;5034863;28;20483;-88
2022/08/14 06:22:42;;;;;;;12.30;11.18;;;;;;;22.32;88.88;99311.69;5053555;28;20041;-87
2022/08/14 06:25:09;;;;;;;12.20;10.93;;;;;;;22.55;87.62;99322.69;5045380;28;20443;-88
2022/08/14 06:27:39;;;;;;;13.43;10.88;;;;;;;22.56;86.37;99316.50;5034896;28;20029;-89
2022/08/14 06:30:14;;;;;;;11.63;10.45;;;;;;;22.75;86.56;99313.66;5019809;28;20061;-89
2022/08/14 06:32:40;;;;;;;11.40;10.27;;;;;;;22.93;85.51;99318.47;5017683;28;20038;-82
2022/08/14 06:35:07;;;;;;;12.00;10.80;;;;;;;22.93;85.33;99324.13;4998103;28;20034;-82
2022/08/14 06:37:54;;;;;;;11.50;10.35;;;;;;;23.12;84.11;99315.59;5044387;28;20156;-82
2022/08/14 06:40:26;;;;;;;11.95;10.75;;;;;;;23.23;83.06;99321.06;5014236;28;20045;-83
2022/08/14 06:42:51;;;;;;;11.23;10.13;;;;;;;23.32;82.32;99325.53;5030341;28;20124;-83
2022/08/14 06:45:17;;;;;;;11.50;10.50;;;;;;;23.28;82.18;99325.88;5030651;28;20529;-83
2022/08/14 06:47:45;;;;;;;10.57;9.50;;;;;;;23.45;82.08;99329.19;5000740;28;20077;-83
2022/08/14 06:50:20;;;;;;;11.38;10.38;;;;;;;23.38;81.68;99323.34;5012606;28;20030;-88
2022/08/14 06:52:47;;;;;;;11.38;10.25;;;;;;;23.31;81.84;99318.34;5015941;28;20096;-88
2022/08/14 06:55:13;;;;;;;11.40;10.30;;;;;;;23.30;82.11;99322.47;5016730;28;20034;-89
2022/08/14 06:57:42;;;;;;;11.80;10.60;;;;;;;23.44;81.32;99324.06;5000270;28;20038;-89
2022/08/14 07:00:14;;;;;;;11.60;10.32;;;;;;;23.56;80.41;99314.06;4995942;28;20052;-89
2022/08/14 07:08:14;;;;;;;11.18;10.05;;;;;;;23.97;79.12;99322.75;5017945;28;20105;-89
2022/08/14 07:10:42;;;;;;;10.80;9.80;;;;;;;24.20;78.13;99322.28;5027407;28;20081;-83
2022/08/14 07:13:12;;;;;;;11.63;10.50;;;;;;;24.45;77.09;99327.13;5014989;28;20552;-83
2022/08/14 07:15:38;;;;;;;11.85;10.68;;;;;;;24.63;76.00;99325.41;5032185;28;20049;-82
2022/08/14 07:18:05;;;;;;;11.82;10.45;;;;;;;24.90;74.56;99326.09;5051214;28;20033;-83
2022/08/14 07:20:31;;;;;;;11.40;10.30;;;;;;;24.98;74.48;99326.94;5047087;28;20029;-83
2022/08/14 07:22:59;;;;;;;11.32;10.23;;;;;;;24.99;73.86;99328.47;5017119;28;20037;-84
2022/08/14 07:25:25;;;;;;;11.68;10.57;;;;;;;24.99;73.16;99337.72;5033603;28;20098;-83
2022/08/14 07:27:50;;;;;;;11.80;10.52;;;;;;;25.00;73.39;99330.72;5022112;28;20054;-83
2022/08/14 07:30:16;;;;;;;11.23;10.20;;;;;;;25.03;72.72;99340.97;5040578;28;20034;-89
2022/08/14 07:32:42;;;;;;;12.00;10.80;;;;;;;24.95;73.64;99331.63;5013592;28;20051;-89
2022/08/14 07:35:08;;;;;;;11.55;10.48;;;;;;;24.92;74.49;99332.72;5030718;28;20153;-89
2022/08/14 07:37:33;;;;;;;11.98;10.77;;;;;;;25.39;71.52;99343.16;5045661;28;20072;-90
2022/08/14 07:40:00;;;;;;;11.57;10.40;;;;;;;25.46;70.88;99348.13;5050767;28;20076;-88
2022/08/14 07:42:27;;;;;;;11.30;10.27;;;;;;;25.45;70.65;99340.91;5051501;28;20041;-90
2022/08/14 07:44:52;;;;;;;11.38;10.38;;;;;;;25.43;70.77;99340.72;5033192;28;20070;-89
2022/08/14 07:47:18;;;;;;;11.65;10.55;;;;;;;25.40;71.37;99344.66;5043457;28;20406;-90
2022/08/14 07:50:00;;;;;;;11.95;10.85;;;;;;;25.63;70.16;99342.03;5050892;28;20041;-84
2022/08/14 07:52:27;;;;;;;11.98;10.55;;;;;;;25.62;70.33;99341.28;5017581;28;20584;-83
2022/08/14 07:54:53;;;;;;;11.70;10.60;;;;;;;25.98;69.15;99342.03;5028944;28;20049;-84
2022/08/14 07:57:19;;;;;;;11.30;10.30;;;;;;;26.13;67.50;99347.03;5007829;28;20038;-85
2022/08/14 07:59:46;;;;;;;11.73;10.50;;;;;;;26.02;66.87;99338.06;5010644;28;20120;-84
2022/08/14 08:02:14;;;;;;;12.20;11.10;;;;;;;26.06;67.96;99335.63;5016354;28;20652;-84
2022/08/14 08:04:45;;;;;;;11.98;10.88;;;;;;;26.19;66.91;99338.34;5015770;28;20387;-84
2022/08/14 08:07:11;;;;;;;11.90;10.90;;;;;;;26.30;65.85;99338.03;5024419;28;20375;-90
2022/08/14 08:09:43;;;;;;;12.10;11.00;;;;;;;26.40;65.82;99331.28;5047052;28;20049;-90
2022/08/14 08:12:10;;;;;;;11.95;10.80;;;;;;;26.34;66.33;99327.06;5012511;28;20061;-89
2022/08/14 08:14:36;;;;;;;12.65;11.35;;;;;;;26.31;65.33;99334.66;5025656;28;20598;-91
2022/08/14 08:17:02;;;;;;;12.18;10.90;;;;;;;26.20;66.52;99335.00;5039293;28;20174;-91
2022/08/14 08:19:30;;;;;;;12.05;10.95;;;;;;;26.34;65.20;99339.19;5050380;28;20059;-91
2022/08/14 08:21:57;;;;;;;12.70;11.60;;;;;;;26.31;65.51;99328.19;5033475;28;20056;-88
2022/08/14 08:24:23;;;;;;;12.00;10.93;;;;;;;26.35;64.99;99328.59;5048362;28;20037;-89
2022/08/14 08:26:48;;;;;;;11.85;10.75;;;;;;;26.27;65.18;99322.13;5016561;28;20056;-84
2022/08/14 08:29:23;;;;;;;11.80;10.70;;;;;;;26.24;65.45;99318.31;5026687;28;20116;-84
2022/08/14 08:31:49;;;;;;;11.85;10.75;;;;;;;26.52;65.40;99317.47;5042640;28;20047;-84
2022/08/14 08:34:18;;;;;;;11.80;10.70;;;;;;;26.63;65.52;99308.56;5038938;28;20036;-84
2022/08/14 08:36:44;;;;;;;12.13;10.88;;;;;;;26.84;64.07;99317.75;5026716;28;20046;-84
2022/08/14 08:39:10;;;;;;;11.15;10.05;;;;;;;26.95;63.41;99313.00;5040195;28;20048;-84
2022/08/14 08:41:44;;;;;;;11.15;10.15;;;;;;;26.88;62.96;99312.44;5023027;28;20033;-84
2022/08/14 08:44:10;;;;;;;11.48;10.38;;;;;;;27.17;62.68;99307.31;5027475;28;20038;-84
2022/08/14 08:46:36;;;;;;;10.88;9.82;;;;;;;27.30;62.04;99300.66;5012431;28;20045;-88
2022/08/14 08:49:01;;;;;;;11.40;10.30;;;;;;;27.52;61.29;99305.59;5036428;28;20048;-89
2022/08/14 08:51:29;;;;;;;11.38;10.27;;;;;;;27.45;61.12;99297.03;5028346;28;20042;-88
2022/08/14 08:54:00;;;;;;;11.02;10.02;;;;;;;27.72;59.51;99307.44;5013286;28;20052;-89
2022/08/14 08:56:52;;;;;;;9.90;8.98;;;;;;;27.86;59.44;99312.94;5027374;28;20553;-89
2022/08/14 08:59:26;;;;;;;10.25;9.18;;;;;;;27.83;58.68;99301.34;5023234;28;20518;-89
2022/08/14 09:02:00;;;;;;;11.15;9.77;;;;;;;28.15;58.62;99314.16;5027931;28;20046;-84
2022/08/14 09:04:27;;;;;;;10.40;9.50;;;;;;;28.60;57.08;99313.94;5028491;28;20033;-89
2022/08/14 09:06:53;;;;;;;10.65;9.75;;;;;;;28.64;57.41;99314.28;5029952;28;20053;-89
2022/08/14 09:09:21;;;;;;;10.73;9.73;;;;;;;28.71;56.08;99304.94;5033649;28;20190;-90
2022/08/14 09:11:47;;;;;;;10.88;9.80;;;;;;;28.81;56.13;99305.09;5036023;28;20452;-89
2022/08/14 09:14:13;;;;;;;10.77;9.68;;;;;;;28.87;55.11;99305.63;5033261;28;20037;-89
2022/08/14 09:16:40;;;;;;;9.93;9.02;;;;;;;28.95;54.45;99305.56;5033199;28;20033;-88
2022/08/14 09:19:09;;;;;;;10.50;9.57;;;;;;;28.63;55.24;99304.22;5025139;28;20050;-88
2022/08/14 09:21:38;;;;;;;10.20;9.20;;;;;;;28.71;54.25;99313.50;5038287;28;20475;-88
2022/08/14 09:24:05;;;;;;;12.95;11.75;;;;;;;28.49;55.60;99300.13;5014990;28;20080;-84
2022/08/14 09:26:30;;;;;;;9.73;8.73;;;;;;;28.71;54.21;99302.09;5039585;28;20037;-84
2022/08/14 09:28:56;;;;;;;9.23;8.43;;;;;;;28.92;52.15;99304.59;5031609;28;20593;-84
2022/08/14 09:31:21;;;;;;;10.20;9.18;;;;;;;29.03;52.33;99306.25;5034163;28;20037;-84
2022/08/14 09:34:07;;;;;;;9.30;8.40;;;;;;;29.31;51.77;99302.25;5013250;28;20519;-84
2022/08/14 09:37:10;;;;;;;9.68;8.52;;;;;;;29.74;52.06;99295.88;5030575;28;20559;-84
2022/08/14 09:39:50;;;;;;;;;;;;;;;29.92;49.12;99299.53;5008413;28;20081;-85
2022/08/14 09:42:21;;;;;;;9.32;8.32;;;;;;;29.66;49.26;99295.22;5036673;28;19963;-87
2022/08/14 09:45:10;;;;;;;11.45;9.18;;;;;;;29.90;49.47;99288.69;5017105;28;20131;-86
2022/08/14 09:47:56;;;;;;;9.38;8.48;;;;;;;30.08;49.25;99283.72;5027617;28;20110;-86
2022/08/14 09:50:34;;;;;;;10.02;9.13;;;;;;;30.12;50.77;99289.00;5035792;28;20037;-89
2022/08/14 09:53:41;;;;;;;9.63;8.73;;;;;;;29.93;49.36;99278.91;5026869;28;20446;-89
2022/08/14 09:56:07;;;;;;;9.18;8.38;;;;;;;30.12;48.67;99277.56;5052548;28;20037;-92
2022/08/14 09:58:39;;;;;;;9.50;8.43;;;;;;;30.14;47.51;99272.75;5033547;28;20113;-95
2022/08/14 10:01:13;;;;;;;8.88;8.07;;;;;;;30.30;47.21;99265.47;5052220;22;20049;-83
2022/08/14 10:03:51;;;;;;;9.95;9.05;;;;;;;30.15;47.92;99274.25;5082549;22;20115;-80
2022/08/14 10:06:43;;;;;;;9.35;8.55;;;;;;;30.15;47.61;99259.97;5031701;28;20544;-82
2022/08/14 10:09:08;;;;;;;8.90;8.00;;;;;;;30.24;46.79;99267.09;5054447;28;20033;-80
2022/08/14 10:11:36;;;;;;;9.85;8.85;;;;;;;30.14;47.89;99258.44;5053920;28;20051;-78
2022/08/14 10:14:32;;;;;;;9.57;8.70;;;;;;;30.31;47.42;99258.41;5054527;28;20469;-80
2022/08/14 10:16:58;;;;;;;9.32;8.43;;;;;;;30.05;48.65;99256.28;5054767;28;20039;-80
2022/08/14 10:19:26;;;;;;;9.35;8.45;;;;;;;30.34;46.88;99245.78;5055563;28;20459;-80
2022/08/14 10:22:02;;;;;;;9.13;8.23;;;;;;;30.72;45.96;99250.97;5056971;28;20094;-80
2022/08/14 10:24:45;;;;;;;10.00;9.20;;;;;;;31.10;44.58;99253.19;5058302;28;20041;-80
2022/08/14 10:27:22;;;;;;;9.30;8.35;;;;;;;31.15;45.22;99263.63;5039138;28;20041;-81
2022/08/14 10:30:19;;;;;;;8.85;8.05;;;;;;;31.10;43.81;99267.53;5057065;28;20099;-81
2022/08/14 10:32:47;;;;;;;9.13;8.40;;;;;;;30.50;44.21;99261.41;5059582;28;20064;-82
2022/08/14 10:35:14;;;;;;;8.82;8.02;;;;;;;29.84;44.61;99271.00;5056361;28;20044;-81
2022/08/14 10:37:50;;;;;;;9.07;8.23;;;;;;;29.52;45.91;99254.78;5040042;28;20491;-80
2022/08/14 10:40:30;;;;;;;8.88;8.10;;;;;;;29.85;46.09;99254.59;5041717;28;20112;-81
2022/08/14 10:42:55;;;;;;;9.57;8.48;;;;;;;30.49;45.76;99251.28;5057287;28;20041;-81
2022/08/14 10:45:23;;;;;;;8.75;7.95;;;;;;;30.86;43.84;99248.44;5057204;28;20099;-81
2022/08/14 10:47:51;;;;;;;8.82;8.02;;;;;;;31.02;42.81;99239.03;5056915;28;20044;-81
2022/08/14 10:50:37;;;;;;;8.30;7.55;;;;;;;31.54;41.41;99235.06;5057168;28;20056;-81
2022/08/14 10:53:04;;;;;;;8.95;8.10;;;;;;;31.99;40.97;99237.00;5056712;28;20048;-81
2022/08/14 10:55:39;;;;;;;9.60;8.70;;;;;;;31.88;41.05;99238.38;5055568;28;20048;-81
2022/08/14 11:00:57;;;;;;;9.40;8.50;;;;;;;30.58;43.40;99237.63;5056556;28;20036;-81
2022/08/14 11:03:24;;;;;;;8.50;7.68;;;;;;;30.13;44.48;99227.59;5057141;28;20041;-81
2022/08/14 11:05:51;;;;;;;8.43;7.63;;;;;;;30.31;44.71;99226.94;5054328;28;20040;-80
2022/08/14 11:08:37;;;;;;;8.60;7.88;;;;;;;30.59;44.88;99221.97;5035007;28;20049;-80
2022/08/14 11:11:04;;;;;;;8.65;7.78;;;;;;;30.62;43.25;99221.53;5048048;28;20064;-80
2022/08/14 11:13:30;;;;;;;9.02;8.23;;;;;;;31.04;41.56;99226.97;5031785;28;20478;-80
2022/08/14 11:16:00;;;;;;;8.55;7.60;;;;;;;31.30;40.62;99220.38;5032428;28;20392;-80
2022/08/14 11:18:47;;;;;;;9.40;7.70;;;;;;;31.73;38.82;99215.00;5051335;28;20409;-80
2022/08/14 11:21:21;;;;;;;8.45;7.70;;;;;;;31.29;39.03;99218.13;5051642;28;20385;-80
2022/08/14 11:23:48;;;;;;;8.20;7.50;;;;;;;30.70;39.76;99209.94;5041428;28;20051;-80
2022/08/14 11:29:04;;;;;;;8.20;7.50;;;;;;;30.85;39.42;99204.75;5051420;28;20131;-79
2022/08/14 11:31:31;;;;;;;8.73;7.60;;;;;;;31.19;40.73;99203.78;5051252;28;20045;-80
2022/08/14 11:33:57;;;;;;;7.82;7.13;;;;;;;31.59;37.54;99191.00;5050469;28;20041;-80
2022/08/14 11:36:27;;;;;;;7.90;7.10;;;;;;;31.53;36.78;99199.88;5039654;28;20055;-80
2022/08/14 11:39:18;;;;;;;7.95;7.25;;;;;;;31.02;37.52;99190.34;5036864;28;20120;-80
2022/08/14 11:41:45;;;;;;;7.80;7.07;;;;;;;31.57;37.47;99193.72;5033916;28;20060;-80
2022/08/14 11:44:10;;;;;;;8.45;7.70;;;;;;;31.40;38.12;99194.59;5052093;28;20037;-80
2022/08/14 11:46:53;;;;;;;8.05;7.35;;;;;;;31.33;36.39;99189.78;5048734;28;20044;-80
2022/08/14 11:49:26;;;;;;;9.35;7.30;;;;;;;31.26;36.51;99200.00;5051701;28;20033;-80
2022/08/14 11:51:53;;;;;;;7.90;7.20;;;;;;;31.05;37.85;99199.09;5033351;28;20115;-80
2022/08/14 11:54:18;;;;;;;7.90;7.20;;;;;;;31.32;36.32;99191.88;5050928;28;20052;-79